Time;durP1;ratioP1;P1;durP2;ratioP2;P2;SDS_P1;SDS_P2;PMS_P1;PMS_P2;Temp;Humidity;BMP_temperature;BMP_pressure;BME280_temperature;BME280_humidity;BME280_pressure;Samples;Min_cycle;Max_cycle;Signal;HPM_P1;HPM_P2
2022/07/28 00:01:35;;;;;;;2.05;0.90;;;20.40;45.80;;;;;;5001875;28;20064;-46
2022/07/28 00:04:05;;;;;;;1.58;0.93;;;20.30;45.90;;;;;;5011714;28;20029;-45
2022/07/28 00:06:42;;;;;;;3.25;1.00;;;20.30;45.80;;;;;;5012388;28;20125;-46
2022/07/28 00:09:09;;;;;;;1.17;1.00;;;20.30;45.70;;;;;;4989007;28;20046;-49
2022/07/28 00:11:38;;;;;;;2.80;0.73;;;20.30;45.80;;;;;;5012046;28;20040;-46
2022/07/28 00:14:20;;;;;;;2.83;1.13;;;20.30;45.90;;;;;;5003487;28;20120;-47
2022/07/28 00:16:50;;;;;;;3.15;1.10;;;20.30;45.70;;;;;;5010239;28;20076;-47
2022/07/28 00:19:19;;;;;;;3.95;1.13;;;20.30;45.90;;;;;;5007937;28;20502;-46
2022/07/28 00:21:48;;;;;;;1.20;0.95;;;20.30;46.20;;;;;;5008981;28;20034;-48
2022/07/28 00:24:15;;;;;;;2.85;1.10;;;20.30;45.70;;;;;;5011981;28;20042;-46
2022/07/28 00:26:44;;;;;;;1.67;1.05;;;20.20;45.70;;;;;;5012399;28;20133;-49
2022/07/28 00:29:16;;;;;;;2.53;1.20;;;20.20;46.20;;;;;;5008737;28;20506;-45
2022/07/28 00:31:49;;;;;;;2.53;1.50;;;20.20;46.10;;;;;;5011771;28;20111;-49
2022/07/28 00:34:16;;;;;;;2.15;1.13;;;20.20;45.90;;;;;;5010161;28;20046;-44
2022/07/28 00:36:43;;;;;;;2.60;1.30;;;20.10;46.00;;;;;;5007514;28;20409;-44
2022/07/28 00:39:10;;;;;;;5.25;1.30;;;20.10;46.10;;;;;;5002042;28;20046;-45
2022/07/28 00:41:37;;;;;;;1.85;1.00;;;20.10;46.20;;;;;;5011017;28;20084;-45
2022/07/28 00:44:07;;;;;;;2.10;0.93;;;20.00;46.20;;;;;;5010859;28;20064;-51
2022/07/28 00:46:36;;;;;;;3.65;1.50;;;20.00;46.40;;;;;;5006558;28;20537;-46
2022/07/28 00:49:15;;;;;;;1.88;1.30;;;20.00;46.40;;;;;;5010265;28;20042;-48
2022/07/28 00:51:45;;;;;;;3.50;1.25;;;19.90;46.60;;;;;;5011661;28;20069;-46
2022/07/28 00:54:12;;;;;;;4.60;1.00;;;19.90;46.30;;;;;;5008517;28;20096;-52
2022/07/28 00:56:39;;;;;;;4.07;1.25;;;19.90;46.40;;;;;;5007078;28;20034;-47
2022/07/28 00:59:06;;;;;;;2.25;0.95;;;19.90;46.50;;;;;;5009189;28;20050;-45
2022/07/28 01:01:33;;;;;;;2.28;1.10;;;19.90;46.90;;;;;;5011255;28;20498;-46
2022/07/28 01:04:01;;;;;;;3.45;1.33;;;19.80;46.70;;;;;;5010604;28;20092;-48
2022/07/28 01:06:58;;;;;;;2.03;0.90;;;19.80;46.90;;;;;;5007772;28;20034;-46
2022/07/28 01:09:44;;;;;;;1.52;0.95;;;19.80;47.50;;;;;;5006494;28;20103;-49
2022/07/28 01:12:48;;;;;;;2.67;1.02;;;19.80;47.40;;;;;;5011552;28;20046;-48
2022/07/28 01:15:17;;;;;;;2.70;1.10;;;19.80;47.40;;;;;;5004914;28;20414;-49
2022/07/28 01:18:01;;;;;;;1.90;0.93;;;19.70;47.20;;;;;;5007353;28;20044;-46
2022/07/28 01:20:43;;;;;;;3.35;1.38;;;19.70;47.60;;;;;;5003342;28;20029;-49
2022/07/28 01:23:36;;;;;;;3.05;1.27;;;19.60;47.80;;;;;;5008430;28;20041;-46
2022/07/28 01:26:02;;;;;;;;;;;19.70;47.50;;;;;;4970271;28;20786;-48
2022/07/28 01:28:48;;;;;;;1.38;0.90;;;19.70;46.90;;;;;;5010216;28;19921;-48
2022/07/28 01:31:23;;;;;;;2.45;1.10;;;19.60;47.80;;;;;;5009630;28;20042;-46
2022/07/28 01:34:01;;;;;;;1.77;0.93;;;19.50;47.60;;;;;;5008249;28;20038;-45
2022/07/28 01:36:38;;;;;;;1.60;1.17;;;19.50;48.20;;;;;;5007942;28;20080;-44
2022/07/28 01:39:05;;;;;;;3.05;1.23;;;19.50;48.20;;;;;;5010738;28;20030;-48
2022/07/28 01:41:33;;;;;;;2.45;1.15;;;19.40;47.90;;;;;;5010820;28;20049;-47
2022/07/28 01:44:10;;;;;;;1.45;1.10;;;19.40;48.10;;;;;;5006225;28;20042;-48
2022/07/28 01:46:42;;;;;;;3.05;1.02;;;19.30;48.20;;;;;;5009398;28;20038;-51
2022/07/28 01:49:09;;;;;;;1.63;1.15;;;19.30;48.40;;;;;;5010759;28;20494;-46
2022/07/28 01:51:37;;;;;;;4.30;1.30;;;19.20;48.30;;;;;;5008733;28;20586;-48
2022/07/28 01:54:05;;;;;;;1.38;0.75;;;19.20;49.10;;;;;;5003174;28;20407;-51
2022/07/28 01:56:33;;;;;;;1.65;1.02;;;19.20;48.60;;;;;;5009946;28;20038;-47
2022/07/28 01:59:13;;;;;;;1.17;0.73;;;19.20;48.80;;;;;;5010009;28;20038;-45
2022/07/28 02:01:47;;;;;;;1.30;0.70;;;19.20;48.90;;;;;;5008382;28;20594;-48
2022/07/28 02:04:20;;;;;;;2.88;1.30;;;19.20;49.00;;;;;;5009278;28;20092;-47
2022/07/28 02:06:48;;;;;;;1.23;1.13;;;19.10;48.90;;;;;;5009925;28;20038;-44
2022/07/28 02:09:20;;;;;;;1.73;0.68;;;19.10;48.90;;;;;;5008463;28;20049;-47
2022/07/28 02:11:51;;;;;;;1.70;0.88;;;19.00;48.80;;;;;;5003829;28;20046;-49
2022/07/28 02:14:21;;;;;;;2.15;1.40;;;19.00;49.10;;;;;;5009368;28;20398;-46
2022/07/28 02:17:08;;;;;;;2.33;0.80;;;19.00;48.90;;;;;;5010295;28;20083;-45
2022/07/28 02:19:37;;;;;;;2.35;0.85;;;19.00;49.50;;;;;;5008911;28;20495;-50
2022/07/28 02:22:05;;;;;;;1.75;1.20;;;19.00;49.20;;;;;;5006966;28;20578;-44
2022/07/28 02:24:34;;;;;;;0.82;0.80;;;18.90;49.10;;;;;;5009123;28;20049;-48
2022/07/28 02:27:19;;;;;;;1.45;0.90;;;18.90;49.20;;;;;;5010656;28;20467;-49
2022/07/28 02:30:11;;;;;;;1.08;0.80;;;18.90;49.40;;;;;;5003917;28;20046;-45
2022/07/28 02:32:45;;;;;;;2.00;1.05;;;18.90;49.50;;;;;;4974880;28;20104;-48
2022/07/28 02:35:30;;;;;;;3.92;1.05;;;18.80;49.50;;;;;;5009184;28;20037;-46
2022/07/28 02:38:06;;;;;;;1.45;1.08;;;18.80;49.80;;;;;;5009971;28;20534;-49
2022/07/28 02:40:38;;;;;;;1.45;0.70;;;18.70;49.70;;;;;;5007073;28;20046;-46
2022/07/28 02:43:13;;;;;;;1.73;0.85;;;18.70;49.50;;;;;;5009676;28;20034;-45
2022/07/28 02:45:47;;;;;;;2.25;0.65;;;18.70;49.70;;;;;;5009376;28;20049;-47
2022/07/28 02:48:20;;;;;;;2.20;0.75;;;18.60;49.70;;;;;;5007129;28;20062;-50
2022/07/28 02:50:48;;;;;;;0.80;0.80;;;18.50;49.70;;;;;;4985598;28;20041;-48
2022/07/28 02:53:16;;;;;;;1.55;0.80;;;18.50;49.80;;;;;;5009460;28;20093;-45
2022/07/28 02:55:46;;;;;;;1.83;0.90;;;18.40;49.90;;;;;;5009214;28;20049;-49
2022/07/28 02:58:15;;;;;;;2.22;0.80;;;18.40;50.20;;;;;;5011589;28;20038;-48
2022/07/28 03:00:43;;;;;;;0.80;0.80;;;18.30;50.00;;;;;;5010674;28;20113;-46
2022/07/28 03:03:16;;;;;;;1.90;1.00;;;18.20;50.00;;;;;;5012486;28;20070;-46
2022/07/28 03:05:44;;;;;;;3.60;0.90;;;18.20;50.10;;;;;;5013200;28;20514;-48
2022/07/28 03:08:11;;;;;;;2.70;1.00;;;18.10;50.10;;;;;;5010846;28;20100;-46
2022/07/28 03:10:42;;;;;;;0.70;0.70;;;18.00;50.10;;;;;;5009395;28;20050;-44
2022/07/28 03:13:12;;;;;;;1.63;0.90;;;17.90;50.10;;;;;;5013186;28;20052;-48
2022/07/28 03:15:45;;;;;;;2.63;0.90;;;17.90;50.20;;;;;;5009509;28;20046;-50
2022/07/28 03:18:11;;;;;;;0.80;0.63;;;17.80;50.30;;;;;;5008610;28;20041;-46
2022/07/28 03:20:38;;;;;;;1.20;0.70;;;17.70;50.40;;;;;;5012809;28;20038;-49
2022/07/28 03:23:09;;;;;;;1.70;0.90;;;17.60;50.50;;;;;;5012912;28;20038;-45
2022/07/28 03:25:47;;;;;;;1.80;0.90;;;17.60;50.70;;;;;;5006177;28;20065;-47
2022/07/28 03:28:19;;;;;;;2.05;0.90;;;17.50;51.00;;;;;;5008976;28;20056;-45
2022/07/28 03:30:58;;;;;;;1.50;1.00;;;17.40;51.10;;;;;;5008299;28;20068;-44
2022/07/28 03:33:26;;;;;;;2.63;1.85;;;17.40;51.40;;;;;;5014315;28;20048;-47
2022/07/28 03:36:04;;;;;;;1.42;0.70;;;17.30;50.90;;;;;;5031254;28;20037;-47
2022/07/28 03:38:36;;;;;;;0.88;0.82;;;17.20;51.20;;;;;;5008684;28;20042;-44
2022/07/28 03:41:08;;;;;;;1.50;0.52;;;17.20;51.20;;;;;;5013358;28;20132;-47
2022/07/28 03:43:35;;;;;;;1.42;0.90;;;17.00;51.00;;;;;;5013155;28;20042;-46
2022/07/28 03:46:01;;;;;;;2.28;1.10;;;17.00;51.00;;;;;;5005956;28;20069;-46
2022/07/28 03:48:30;;;;;;;1.05;0.90;;;16.90;51.80;;;;;;5013331;28;20046;-47
2022/07/28 03:51:00;;;;;;;1.85;0.93;;;16.90;51.30;;;;;;5012509;28;20514;-49
2022/07/28 03:53:28;;;;;;;1.13;0.93;;;16.80;51.20;;;;;;5011772;28;20502;-48
2022/07/28 03:55:58;;;;;;;1.38;0.98;;;16.70;51.40;;;;;;5011409;28;20061;-45
2022/07/28 03:58:27;;;;;;;1.05;0.85;;;16.60;51.40;;;;;;5013184;28;20042;-47
2022/07/28 04:00:56;;;;;;;1.52;0.80;;;16.60;51.50;;;;;;5012911;28;20627;-44
2022/07/28 04:03:32;;;;;;;1.27;0.80;;;16.50;51.70;;;;;;5006865;28;20034;-45
2022/07/28 04:06:13;;;;;;;3.28;0.98;;;16.50;51.80;;;;;;5020750;28;20127;-46
2022/07/28 04:08:41;;;;;;;1.48;1.20;;;16.40;52.20;;;;;;5002675;28;20097;-46
2022/07/28 04:11:09;;;;;;;3.47;1.45;;;16.40;52.10;;;;;;5003509;28;20037;-47
2022/07/28 04:13:36;;;;;;;0.75;0.68;;;16.40;52.30;;;;;;5019289;28;20041;-44
2022/07/28 04:16:05;;;;;;;3.28;1.25;;;16.30;52.50;;;;;;5020657;28;20033;-45
2022/07/28 04:18:33;;;;;;;2.33;0.90;;;16.30;52.70;;;;;;5021285;28;20055;-45
2022/07/28 04:21:00;;;;;;;1.27;1.15;;;16.30;53.00;;;;;;5021797;28;20383;-48
2022/07/28 04:23:29;;;;;;;1.10;0.90;;;16.20;53.10;;;;;;5014128;28;20497;-48
2022/07/28 04:25:56;;;;;;;0.90;0.85;;;16.20;53.20;;;;;;5020863;28;20033;-44
2022/07/28 04:28:24;;;;;;;0.73;0.73;;;16.20;53.30;;;;;;5017183;28;20128;-45
2022/07/28 04:30:51;;;;;;;1.85;1.17;;;16.20;53.50;;;;;;5013763;28;20603;-47
2022/07/28 04:33:18;;;;;;;2.35;1.15;;;16.20;53.60;;;;;;5011358;28;20096;-47
2022/07/28 04:35:45;;;;;;;1.23;0.80;;;16.20;53.70;;;;;;5017941;28;20601;-44
2022/07/28 04:38:13;;;;;;;1.35;0.80;;;16.20;53.90;;;;;;5016846;28;20197;-45
2022/07/28 04:40:41;;;;;;;1.52;1.40;;;16.20;54.00;;;;;;5011528;28;20042;-45
2022/07/28 04:43:09;;;;;;;2.63;1.20;;;16.20;54.20;;;;;;5007869;28;20618;-48
2022/07/28 04:45:35;;;;;;;1.45;1.23;;;16.20;54.30;;;;;;4993448;28;20045;-45
2022/07/28 04:48:03;;;;;;;2.40;0.98;;;16.20;54.40;;;;;;5012129;28;20045;-46
2022/07/28 04:50:29;;;;;;;4.45;1.20;;;16.20;54.50;;;;;;5022047;28;20065;-47
2022/07/28 04:52:57;;;;;;;1.63;1.10;;;16.30;54.70;;;;;;5016714;28;20819;-45
2022/07/28 04:55:24;;;;;;;3.88;1.50;;;16.30;54.90;;;;;;5019997;28;20088;-45
2022/07/28 04:57:51;;;;;;;2.53;1.15;;;16.30;54.90;;;;;;5020848;28;20041;-48
2022/07/28 05:00:18;;;;;;;2.60;1.23;;;16.30;55.10;;;;;;5014165;28;20054;-44
2022/07/28 05:02:47;;;;;;;2.67;1.42;;;16.40;55.30;;;;;;5001315;28;20073;-49
2022/07/28 05:05:14;;;;;;;2.58;1.08;;;16.40;55.40;;;;;;5018956;28;20104;-44
2022/07/28 05:07:41;;;;;;;1.58;1.00;;;16.40;55.50;;;;;;5011741;28;20049;-46
2022/07/28 05:10:10;;;;;;;3.42;1.20;;;16.50;55.70;;;;;;5007279;28;20053;-47
2022/07/28 05:12:37;;;;;;;2.15;1.15;;;16.50;56.00;;;;;;5011216;28;20453;-44
2022/07/28 05:15:05;;;;;;;3.85;1.67;;;16.60;56.10;;;;;;5006514;28;20046;-49
2022/07/28 05:17:32;;;;;;;1.75;1.30;;;16.60;56.30;;;;;;5005627;28;20473;-46
2022/07/28 05:19:59;;;;;;;3.80;1.25;;;16.70;56.40;;;;;;5003117;28;20065;-45
2022/07/28 05:22:41;;;;;;;4.10;1.40;;;16.80;56.40;;;;;;5009443;28;20037;-48
2022/07/28 05:25:16;;;;;;;1.98;1.50;;;16.90;57.10;;;;;;5010982;28;20065;-46
2022/07/28 05:27:46;;;;;;;2.10;1.30;;;17.00;56.30;;;;;;5018909;28;20050;-46
2022/07/28 05:30:14;;;;;;;2.60;1.30;;;17.10;55.90;;;;;;5004046;28;20065;-46
2022/07/28 05:32:41;;;;;;;7.25;1.67;;;17.20;55.70;;;;;;5008550;28;20052;-47
2022/07/28 05:35:08;;;;;;;5.18;1.30;;;17.20;55.40;;;;;;5008655;28;20038;-50
2022/07/28 05:37:36;;;;;;;3.55;1.42;;;17.40;55.30;;;;;;5006850;28;20050;-47
2022/07/28 05:40:09;;;;;;;2.67;1.40;;;17.40;55.30;;;;;;5001858;28;20103;-48
2022/07/28 05:42:35;;;;;;;3.95;1.52;;;17.60;55.10;;;;;;5008346;28;20045;-45
2022/07/28 05:45:07;;;;;;;3.38;1.60;;;17.70;55.00;;;;;;5008452;28;20120;-50
2022/07/28 05:47:51;;;;;;;2.83;1.20;;;17.80;55.00;;;;;;5006202;28;20052;-48
2022/07/28 05:50:20;;;;;;;1.42;1.10;;;17.90;55.10;;;;;;5008209;28;20405;-45
2022/07/28 05:52:50;;;;;;;3.10;1.60;;;18.00;54.70;;;;;;5008560;28;20050;-49
2022/07/28 05:55:17;;;;;;;3.20;1.60;;;18.10;54.80;;;;;;5006705;28;20116;-50
2022/07/28 05:57:44;;;;;;;5.57;1.55;;;18.20;54.40;;;;;;5001986;28;20041;-44
2022/07/28 06:00:16;;;;;;;3.03;1.63;;;18.30;54.40;;;;;;5007561;28;20047;-48
2022/07/28 06:02:47;;;;;;;3.08;1.40;;;18.40;54.00;;;;;;5015346;28;20046;-50
2022/07/28 06:05:16;;;;;;;3.95;1.63;;;18.50;53.90;;;;;;5018005;28;20041;-51
2022/07/28 06:07:44;;;;;;;2.70;1.60;;;18.60;54.30;;;;;;5006477;28;20045;-46
2022/07/28 06:10:14;;;;;;;6.97;1.92;;;18.70;53.30;;;;;;4996426;28;20507;-50
2022/07/28 06:12:45;;;;;;;3.65;1.75;;;18.70;53.00;;;;;;5001782;28;20042;-45
2022/07/28 06:15:17;;;;;;;4.30;1.40;;;18.80;53.10;;;;;;5002941;28;20046;-51
2022/07/28 06:17:44;;;;;;;7.45;2.10;;;18.90;52.90;;;;;;5003685;28;20338;-47
2022/07/28 06:20:12;;;;;;;3.35;2.08;;;19.00;52.70;;;;;;5007199;28;20080;-48
2022/07/28 06:22:43;;;;;;;2.47;1.33;;;19.00;52.60;;;;;;5012747;28;20042;-48
2022/07/28 06:25:15;;;;;;;3.88;1.52;;;19.10;52.60;;;;;;5003254;28;20035;-50
2022/07/28 06:27:44;;;;;;;4.10;1.50;;;19.10;52.70;;;;;;5007186;28;20565;-48
2022/07/28 06:30:11;;;;;;;4.30;2.03;;;19.20;52.50;;;;;;4988789;28;20045;-46
2022/07/28 06:32:38;;;;;;;5.65;1.80;;;19.20;52.10;;;;;;5006368;28;20042;-46
2022/07/28 06:35:05;;;;;;;5.03;1.70;;;19.30;52.20;;;;;;5007222;28;20096;-48
2022/07/28 06:37:32;;;;;;;5.78;1.73;;;19.40;52.20;;;;;;5010518;28;20042;-46
2022/07/28 06:39:59;;;;;;;4.85;2.60;;;19.40;52.10;;;;;;5012722;28;20056;-45
2022/07/28 06:42:26;;;;;;;4.25;1.60;;;19.50;51.90;;;;;;5008746;28;20844;-51
2022/07/28 06:44:53;;;;;;;5.57;2.05;;;19.50;51.60;;;;;;5009271;28;20084;-49
2022/07/28 06:47:25;;;;;;;4.90;1.42;;;19.60;51.80;;;;;;5011144;28;20124;-46
2022/07/28 06:49:52;;;;;;;3.60;2.55;;;19.60;51.50;;;;;;5012427;28;20038;-48
2022/07/28 06:52:19;;;;;;;6.30;1.95;;;19.60;51.60;;;;;;4999086;28;20042;-48
2022/07/28 06:54:49;;;;;;;4.43;2.33;;;19.70;51.30;;;;;;5007413;28;20453;-46
2022/07/28 06:57:17;;;;;;;3.75;1.88;;;19.70;51.10;;;;;;5008009;28;20042;-45
2022/07/28 06:59:45;;;;;;;5.47;1.83;;;19.70;51.30;;;;;;5013221;28;20084;-45
2022/07/28 07:02:13;;;;;;;3.30;1.70;;;19.70;51.10;;;;;;5013063;28;20041;-46
2022/07/28 07:04:40;;;;;;;5.85;1.90;;;19.70;51.20;;;;;;5012506;28;20034;-45
2022/07/28 07:07:07;;;;;;;6.43;2.00;;;19.80;51.20;;;;;;5010457;28;20038;-46
2022/07/28 07:09:43;;;;;;;7.60;1.60;;;19.80;51.30;;;;;;5013023;28;20045;-44
2022/07/28 07:12:10;;;;;;;6.95;2.08;;;19.80;51.30;;;;;;5010287;28;20557;-48
2022/07/28 07:14:37;;;;;;;3.28;1.33;;;19.80;51.10;;;;;;5011727;28;20045;-45
2022/07/28 07:17:03;;;;;;;3.33;1.55;;;19.90;51.10;;;;;;5012617;28;20037;-49
2022/07/28 07:19:30;;;;;;;4.38;1.75;;;19.80;51.10;;;;;;5012492;28;20092;-45
2022/07/28 07:21:57;;;;;;;3.20;1.73;;;19.90;51.10;;;;;;4994355;28;20092;-46
2022/07/28 07:24:24;;;;;;;3.65;1.67;;;19.90;51.20;;;;;;5010779;28;20038;-46
2022/07/28 07:26:50;;;;;;;4.90;1.80;;;19.90;51.40;;;;;;5012202;28;20053;-44
2022/07/28 07:29:18;;;;;;;3.88;2.60;;;19.90;51.40;;;;;;5012737;28;20038;-48
2022/07/28 07:31:45;;;;;;;5.95;2.85;;;20.00;51.40;;;;;;5006577;28;20038;-45
2022/07/28 07:34:18;;;;;;;5.97;2.05;;;20.00;51.10;;;;;;5013487;28;20498;-47
2022/07/28 07:36:45;;;;;;;5.70;2.25;;;20.00;50.80;;;;;;5011264;28;20034;-47
2022/07/28 07:39:11;;;;;;;3.67;1.95;;;20.10;50.80;;;;;;5006600;28;20046;-46
2022/07/28 07:41:38;;;;;;;4.78;1.88;;;20.10;50.70;;;;;;5010749;28;20699;-48
2022/07/28 07:44:05;;;;;;;4.78;2.00;;;20.10;50.70;;;;;;5010865;28;20042;-46
2022/07/28 07:46:31;;;;;;;3.38;2.08;;;20.10;50.70;;;;;;5015159;28;20052;-47
2022/07/28 07:48:58;;;;;;;6.20;2.60;;;20.20;50.90;;;;;;5016345;28;20038;-46
2022/07/28 07:51:25;;;;;;;3.70;1.63;;;20.20;50.70;;;;;;5016515;28;20490;-47
2022/07/28 07:53:52;;;;;;;2.92;1.15;;;20.20;50.80;;;;;;5010547;28;20081;-48
2022/07/28 07:56:18;;;;;;;4.15;1.50;;;20.30;50.80;;;;;;5008738;28;20073;-47
2022/07/28 07:58:45;;;;;;;4.47;1.80;;;20.30;50.30;;;;;;5010302;28;20041;-50
2022/07/28 08:01:12;;;;;;;4.32;1.95;;;20.30;50.10;;;;;;5012436;28;20572;-46
2022/07/28 08:03:39;;;;;;;2.88;1.73;;;20.40;50.10;;;;;;5012904;28;20097;-46
2022/07/28 08:06:06;;;;;;;3.72;1.85;;;20.40;50.30;;;;;;5010611;28;20586;-49
2022/07/28 08:08:33;;;;;;;2.38;1.13;;;20.50;50.50;;;;;;5007781;28;20406;-46
2022/07/28 08:11:11;;;;;;;4.28;1.80;;;20.50;50.30;;;;;;5011308;28;20129;-49
2022/07/28 08:13:38;;;;;;;4.15;1.92;;;20.60;50.20;;;;;;5012828;28;20061;-47
2022/07/28 08:16:05;;;;;;;1.65;1.50;;;20.60;49.90;;;;;;5014806;28;20498;-51
2022/07/28 08:18:31;;;;;;;4.45;1.67;;;20.70;50.10;;;;;;5007397;28;20197;-52
2022/07/28 08:20:58;;;;;;;3.72;1.60;;;20.70;49.90;;;;;;5010211;28;20038;-50
2022/07/28 08:23:25;;;;;;;3.78;1.27;;;20.80;49.80;;;;;;5017145;28;20440;-52
2022/07/28 08:25:52;;;;;;;4.30;1.55;;;20.80;49.80;;;;;;5022264;28;20034;-46
2022/07/28 08:28:19;;;;;;;1.98;1.25;;;20.90;49.50;;;;;;5018875;28;20046;-47
2022/07/28 08:30:45;;;;;;;3.72;1.38;;;20.90;49.50;;;;;;5016173;28;20045;-49
2022/07/28 08:33:12;;;;;;;3.92;1.58;;;21.00;49.20;;;;;;5011259;28;20422;-53
2022/07/28 08:35:40;;;;;;;5.32;1.63;;;21.00;49.40;;;;;;5008038;28;20038;-46
2022/07/28 08:38:06;;;;;;;5.63;1.65;;;21.10;49.40;;;;;;5005322;28;20046;-50
2022/07/28 08:40:35;;;;;;;3.25;1.65;;;21.10;48.90;;;;;;5012069;28;20042;-49
2022/07/28 08:43:22;;;;;;;5.03;1.98;;;21.20;48.70;;;;;;5012154;28;20065;-47
2022/07/28 08:45:51;;;;;;;4.13;1.52;;;21.30;48.40;;;;;;5007601;28;20050;-47
2022/07/28 08:48:33;;;;;;;4.50;1.50;;;21.40;48.40;;;;;;5005134;28;20069;-50
2022/07/28 08:51:03;;;;;;;4.90;2.08;;;21.40;48.50;;;;;;5011520;28;20578;-46
2022/07/28 08:53:30;;;;;;;4.78;2.08;;;21.50;48.50;;;;;;5008582;28;20037;-47
2022/07/28 08:56:04;;;;;;;5.05;1.70;;;21.50;48.20;;;;;;5005709;28;20069;-53
2022/07/28 08:58:32;;;;;;;6.57;1.80;;;21.60;48.10;;;;;;5012929;28;20071;-48
2022/07/28 09:01:00;;;;;;;6.25;1.58;;;21.60;48.00;;;;;;5017480;28;20490;-51
2022/07/28 09:03:27;;;;;;;3.83;1.70;;;21.60;47.80;;;;;;5024559;28;20045;-47
2022/07/28 09:05:55;;;;;;;5.28;2.28;;;21.70;47.70;;;;;;5014936;28;20072;-51
2022/07/28 09:08:23;;;;;;;4.65;1.98;;;21.70;47.60;;;;;;5009711;28;20107;-48
2022/07/28 09:10:50;;;;;;;5.63;1.55;;;21.80;47.50;;;;;;5004925;28;20093;-50
2022/07/28 09:13:18;;;;;;;3.55;1.30;;;21.90;47.40;;;;;;5007372;28;20053;-47
2022/07/28 09:15:46;;;;;;;4.22;1.42;;;21.90;47.20;;;;;;5010264;28;20165;-52
2022/07/28 09:18:14;;;;;;;3.13;1.33;;;22.00;47.10;;;;;;5011522;28;20042;-47
2022/07/28 09:20:42;;;;;;;2.83;1.42;;;22.00;47.00;;;;;;5011384;28;20050;-48
2022/07/28 09:23:12;;;;;;;4.85;1.20;;;22.10;46.70;;;;;;5009269;28;20046;-46
2022/07/28 09:26:09;;;;;;;5.03;1.95;;;22.20;47.00;;;;;;5004521;28;20116;-47
2022/07/28 09:28:56;;;;;;;3.58;1.42;;;22.30;46.50;;;;;;5017619;28;20052;-48
2022/07/28 09:31:24;;;;;;;3.00;1.25;;;22.30;46.50;;;;;;5009441;28;20080;-47
2022/07/28 09:33:53;;;;;;;4.93;1.55;;;22.40;46.50;;;;;;5009059;28;20034;-47
2022/07/28 09:36:20;;;;;;;2.92;1.20;;;22.50;46.90;;;;;;5008370;28;20042;-54
2022/07/28 09:38:47;;;;;;;5.88;1.50;;;22.60;45.80;;;;;;5008946;28;20045;-46
2022/07/28 09:41:17;;;;;;;3.03;1.30;;;22.60;45.80;;;;;;5007211;28;20097;-47
2022/07/28 09:43:45;;;;;;;4.70;1.42;;;22.70;45.50;;;;;;5009133;28;20080;-49
2022/07/28 09:46:21;;;;;;;2.67;1.05;;;22.80;45.50;;;;;;5006204;28;20087;-47
2022/07/28 09:48:49;;;;;;;2.75;1.35;;;22.80;44.90;;;;;;5009058;28;20041;-51
2022/07/28 09:51:26;;;;;;;1.95;1.00;;;22.90;45.00;;;;;;5007761;28;20049;-47
2022/07/28 09:54:06;;;;;;;2.22;0.85;;;23.00;44.50;;;;;;5009348;28;20050;-48
2022/07/28 09:56:34;;;;;;;1.70;1.05;;;23.10;44.20;;;;;;5002609;28;20065;-49
2022/07/28 09:59:02;;;;;;;4.82;1.55;;;23.10;44.30;;;;;;5007970;28;20549;-50
2022/07/28 10:01:30;;;;;;;2.65;1.27;;;23.20;44.00;;;;;;5003750;28;20406;-49
2022/07/28 10:04:03;;;;;;;1.20;0.80;;;23.20;43.70;;;;;;5006404;28;20509;-47
2022/07/28 10:06:33;;;;;;;4.13;1.23;;;23.30;43.70;;;;;;5008760;28;20129;-49
2022/07/28 10:09:02;;;;;;;3.28;1.50;;;23.40;43.20;;;;;;5008104;28;20045;-46
2022/07/28 10:11:29;;;;;;;3.00;1.42;;;23.40;43.30;;;;;;5007279;28;20045;-47
2022/07/28 10:14:01;;;;;;;4.28;1.15;;;23.50;43.00;;;;;;5008977;28;20906;-47
2022/07/28 10:16:31;;;;;;;2.80;1.20;;;23.60;42.30;;;;;;5006127;28;20042;-47
2022/07/28 10:19:00;;;;;;;5.47;1.35;;;23.60;42.00;;;;;;5003386;28;20069;-53
2022/07/28 10:21:29;;;;;;;1.48;1.05;;;23.70;41.50;;;;;;5003565;28;20080;-47
2022/07/28 10:24:02;;;;;;;3.33;1.20;;;23.80;42.10;;;;;;5007028;28;20057;-49
2022/07/28 10:26:38;;;;;;;3.08;1.10;;;23.80;42.00;;;;;;5008411;28;20053;-49
2022/07/28 10:29:07;;;;;;;1.20;0.90;;;23.90;41.40;;;;;;5012993;28;20052;-47
2022/07/28 10:31:44;;;;;;;2.75;1.15;;;23.90;41.40;;;;;;5006594;28;20572;-51
2022/07/28 10:34:21;;;;;;;1.88;0.95;;;24.00;41.20;;;;;;5010098;28;20042;-48
2022/07/28 10:36:54;;;;;;;3.78;1.23;;;24.10;41.60;;;;;;5002639;28;20041;-52
2022/07/28 10:39:24;;;;;;;2.13;1.52;;;24.20;41.60;;;;;;4996720;28;20049;-49
2022/07/28 10:41:51;;;;;;;1.77;0.90;;;24.20;40.90;;;;;;5008460;28;20375;-47
2022/07/28 10:44:19;;;;;;;3.72;1.40;;;24.30;41.70;;;;;;5009734;28;20042;-48
2022/07/28 10:46:48;;;;;;;3.35;0.90;;;24.40;40.80;;;;;;5005879;28;20060;-47
2022/07/28 10:49:15;;;;;;;6.22;1.08;;;24.40;40.50;;;;;;5008432;28;20042;-52
2022/07/28 10:51:46;;;;;;;1.13;1.02;;;24.50;40.40;;;;;;5002544;28;20881;-52
2022/07/28 10:54:32;;;;;;;2.95;0.95;;;24.50;40.00;;;;;;5002389;28;20518;-47
2022/07/28 10:57:01;;;;;;;3.40;0.70;;;24.60;39.80;;;;;;5005148;28;20041;-49
2022/07/28 10:59:58;;;;;;;2.75;1.27;;;24.70;39.70;;;;;;5005481;28;20056;-47
2022/07/28 11:02:51;;;;;;;1.88;1.10;;;24.70;39.20;;;;;;5009168;28;20045;-49
2022/07/28 11:05:37;;;;;;;1.63;1.00;;;24.80;39.30;;;;;;5009139;28;20046;-46
2022/07/28 11:08:16;;;;;;;1.42;0.90;;;24.90;39.50;;;;;;5002630;28;20414;-48
2022/07/28 11:10:47;;;;;;;3.58;0.93;;;25.00;39.50;;;;;;5009093;28;20042;-52
2022/07/28 11:13:41;;;;;;;;;;;25.00;38.80;;;;;;5009205;28;20080;-49
2022/07/28 11:16:14;;;;;;;4.22;1.10;;;25.10;39.90;;;;;;5000977;28;19965;-49
2022/07/28 11:19:06;;;;;;;1.48;0.85;;;25.20;38.50;;;;;;5011260;28;20409;-51
2022/07/28 11:22:21;;;;;;;2.10;0.95;;;25.30;38.00;;;;;;5008678;28;20058;-51
2022/07/28 11:25:00;;;;;;;2.55;0.82;;;25.30;38.00;;;;;;5015906;28;20128;-49
2022/07/28 11:27:50;;;;;;;4.05;0.65;;;25.40;37.80;;;;;;5018555;28;20042;-49
2022/07/28 11:30:18;;;;;;;2.17;0.93;;;25.50;38.20;;;;;;5019487;28;20104;-49
2022/07/28 11:32:53;;;;;;;4.30;1.10;;;25.50;38.20;;;;;;5022260;28;20042;-54
2022/07/28 11:35:22;;;;;;;2.30;1.02;;;25.60;37.90;;;;;;5016219;28;20041;-48
2022/07/28 11:38:00;;;;;;;6.10;1.77;;;25.70;38.10;;;;;;5022254;28;20088;-49
2022/07/28 11:40:55;;;;;;;2.90;1.00;;;25.80;37.60;;;;;;5022527;28;20061;-47
2022/07/28 11:43:29;;;;;;;2.40;0.90;;;25.80;37.80;;;;;;5014306;28;20054;-47
2022/07/28 11:46:03;;;;;;;1.48;0.70;;;26.00;37.50;;;;;;5018881;28;20048;-51
2022/07/28 11:48:37;;;;;;;2.67;1.23;;;26.00;37.40;;;;;;5011733;28;20463;-47
2022/07/28 11:51:04;;;;;;;3.75;0.93;;;26.10;37.40;;;;;;5013901;28;20395;-46
2022/07/28 11:53:39;;;;;;;1.85;0.80;;;26.20;37.00;;;;;;4989049;28;20475;-52
2022/07/28 11:56:14;;;;;;;3.22;0.93;;;26.20;36.50;;;;;;5009921;28;20058;-48
2022/07/28 11:58:42;;;;;;;5.93;0.93;;;26.30;36.50;;;;;;5011782;28;20038;-47
2022/07/28 12:01:10;;;;;;;1.02;0.90;;;26.40;36.70;;;;;;5014979;28;20120;-47
2022/07/28 12:03:50;;;;;;;2.83;1.00;;;26.50;36.50;;;;;;5017851;28;20046;-47
2022/07/28 12:06:22;;;;;;;1.42;1.00;;;26.60;36.60;;;;;;5008131;28;20046;-51
2022/07/28 12:08:57;;;;;;;1.70;0.70;;;26.70;36.80;;;;;;5011726;28;20052;-46
2022/07/28 12:11:26;;;;;;;3.25;1.48;;;26.80;36.70;;;;;;5011359;28;20453;-49
2022/07/28 12:13:59;;;;;;;0.57;0.50;;;26.90;36.30;;;;;;5008048;28;20037;-48
2022/07/28 12:16:26;;;;;;;3.17;0.80;;;27.00;36.00;;;;;;5004200;28;20089;-50
2022/07/28 12:18:54;;;;;;;7.80;1.50;;;27.20;35.80;;;;;;5011524;28;20050;-49
2022/07/28 12:21:36;;;;;;;1.83;0.75;;;27.20;36.30;;;;;;5009080;28;20474;-48
2022/07/28 12:24:23;;;;;;;2.45;1.05;;;27.40;35.60;;;;;;5010930;28;20054;-47
2022/07/28 12:26:49;;;;;;;2.00;1.00;;;27.50;36.00;;;;;;5012156;28;20504;-49
2022/07/28 12:29:17;;;;;;;5.18;0.90;;;27.60;35.70;;;;;;5011691;28;20037;-47
2022/07/28 12:31:54;;;;;;;2.55;1.10;;;27.70;35.40;;;;;;5005705;28;20034;-48
2022/07/28 12:34:22;;;;;;;3.33;0.85;;;27.80;34.70;;;;;;5016263;28;20045;-48
2022/07/28 12:36:56;;;;;;;4.90;1.10;;;27.90;34.80;;;;;;5019650;28;20061;-48
2022/07/28 12:39:24;;;;;;;1.75;0.70;;;28.00;34.80;;;;;;5021019;28;20060;-49
2022/07/28 12:42:06;;;;;;;2.80;0.82;;;28.20;34.80;;;;;;5004153;28;20042;-50
2022/07/28 12:44:46;;;;;;;1.73;0.70;;;28.30;34.60;;;;;;4989158;28;20041;-49
2022/07/28 12:47:25;;;;;;;2.25;0.57;;;28.50;35.00;;;;;;5013739;28;20042;-51
2022/07/28 12:50:12;;;;;;;1.13;0.85;;;28.70;34.10;;;;;;5007937;28;20034;-50
2022/07/28 12:52:44;;;;;;;3.90;1.17;;;28.90;34.30;;;;;;5006819;28;20499;-48
2022/07/28 12:55:23;;;;;;;0.90;0.80;;;29.00;34.10;;;;;;5011961;28;20103;-49
2022/07/28 12:57:51;;;;;;;1.13;0.70;;;29.20;33.60;;;;;;5006177;28;20494;-50
2022/07/28 13:00:25;;;;;;;3.78;0.80;;;29.40;33.90;;;;;;5012282;28;20115;-48
2022/07/28 13:02:58;;;;;;;1.52;0.77;;;29.50;33.20;;;;;;5010913;28;20034;-51
2022/07/28 13:08:25;;;;;;;2.60;0.88;;;30.00;32.80;;;;;;5003086;28;20101;-50
2022/07/28 13:10:55;;;;;;;2.40;0.75;;;30.20;33.00;;;;;;5008099;28;20046;-48
2022/07/28 13:13:27;;;;;;;2.33;0.73;;;30.40;32.40;;;;;;5003502;28;20052;-49